Montmorenci, Indiana
Current Conditions -  °F | °C
As of 12:54 AM on Tuesday 21 Oct 2014 (Local Time) from KLAF Reporting Station
Overcast Overcast  
Wind Chill: 50°   Ceiling: 6000
Heat Index: 50°   Visibility: 10mi
Dew Point: 46°   Wind: 3mph
Humidity: 86%   Direction: 320°NW
Pressure: 29.98"   Gusts: NA
Location:  40.47°N, 87.03°W
Report Text: KLAF 210454Z AUTO 32003KT 10SM OVC060 10/08 A2998 RMK AO2 SLP152 T01000078 401940083 TSNO
Loading
Personal Weather Stations






























Interactive Weather Map
Tropical Storm Tracking
New forecast layout! Learn more

10-Day Weather Forecast

Advertisements
Track Severe Weather on mobile